Time;durP1;ratioP1;P1;durP2;ratioP2;P2;SDS_P1;SDS_P2;PMS_P1;PMS_P2;Temp;Humidity;BMP_temperature;BMP_pressure;BME280_temperature;BME280_humidity;BME280_pressure;Samples;Min_cycle;Max_cycle;Signal;HPM_P1;HPM_P2
2023/08/22 00:01:17;;;;;;;11.20;7.22;;;;;;;;;;5056923;28;20051;-78
2023/08/22 00:03:43;;;;;;;11.45;6.60;;;;;;;;;;5057627;28;20028;-79
2023/08/22 00:06:09;;;;;;;11.88;7.40;;;;;;;;;;5058344;28;20024;-78
2023/08/22 00:08:35;;;;;;;12.48;7.35;;;;;;;;;;5057966;28;20388;-78
2023/08/22 00:11:01;;;;;;;10.30;5.65;;;;;;;;;;5058120;28;20036;-79
2023/08/22 00:13:27;;;;;;;10.77;7.05;;;;;;;;;;5056695;28;20034;-78
2023/08/22 00:15:58;;;;;;;9.50;6.75;;;;;;;;;;5056831;28;20522;-79
2023/08/22 00:18:27;;;;;;;10.38;5.88;;;;;;;;;;5058162;28;20023;-79
2023/08/22 00:20:55;;;;;;;9.60;7.03;;;;;;;;;;5058266;28;20044;-78
2023/08/22 00:23:21;;;;;;;10.48;7.20;;;;;;;;;;5058518;28;20112;-78
2023/08/22 00:25:47;;;;;;;13.38;7.20;;;;;;;;;;5058507;28;20510;-78
2023/08/22 00:28:14;;;;;;;10.15;7.47;;;;;;;;;;5057698;28;20033;-79
2023/08/22 00:30:40;;;;;;;9.80;7.28;;;;;;;;;;5057878;28;20048;-79
2023/08/22 00:33:07;;;;;;;11.68;7.50;;;;;;;;;;5058550;28;20037;-78
2023/08/22 00:35:32;;;;;;;11.85;7.13;;;;;;;;;;5057989;28;20025;-78
2023/08/22 00:37:58;;;;;;;8.52;6.57;;;;;;;;;;5057083;28;20074;-78
2023/08/22 00:40:24;;;;;;;7.78;6.00;;;;;;;;;;5057710;28;20379;-78
2023/08/22 00:42:50;;;;;;;10.70;7.13;;;;;;;;;;5055942;28;20056;-78
2023/08/22 00:45:16;;;;;;;8.52;5.70;;;;;;;;;;5057179;28;20032;-78
2023/08/22 00:47:42;;;;;;;7.22;5.63;;;;;;;;;;5057352;28;20021;-78
2023/08/22 00:50:10;;;;;;;9.27;6.97;;;;;;;;;;5057692;28;20426;-79
2023/08/22 00:52:36;;;;;;;7.70;5.20;;;;;;;;;;5057582;28;20036;-79
2023/08/22 00:55:02;;;;;;;10.35;5.88;;;;;;;;;;5057481;28;20025;-78
2023/08/22 00:57:28;;;;;;;8.88;5.95;;;;;;;;;;5055668;28;20021;-79
2023/08/22 00:59:54;;;;;;;9.90;6.25;;;;;;;;;;5056970;28;20029;-78
2023/08/22 01:02:21;;;;;;;8.68;6.45;;;;;;;;;;5057195;28;20112;-78
2023/08/22 01:04:47;;;;;;;9.02;6.13;;;;;;;;;;5057041;28;20100;-78
2023/08/22 01:07:20;;;;;;;11.52;7.50;;;;;;;;;;5057209;28;20028;-79
2023/08/22 01:10:05;;;;;;;10.98;6.00;;;;;;;;;;5057378;28;20036;-78
2023/08/22 01:12:42;;;;;;;12.13;6.80;;;;;;;;;;5056679;28;20033;-78
2023/08/22 01:15:28;;;;;;;12.40;6.50;;;;;;;;;;5056760;28;20057;-78
2023/08/22 01:17:55;;;;;;;13.25;6.75;;;;;;;;;;5057048;28;20027;-79
2023/08/22 01:20:21;;;;;;;9.00;6.63;;;;;;;;;;5056943;28;20029;-78
2023/08/22 01:22:47;;;;;;;10.52;7.15;;;;;;;;;;5056675;28;20074;-78
2023/08/22 01:25:13;;;;;;;11.25;6.75;;;;;;;;;;5056348;28;20108;-78
2023/08/22 01:27:45;;;;;;;11.15;7.40;;;;;;;;;;5056642;28;20478;-78
2023/08/22 01:30:15;;;;;;;11.27;7.57;;;;;;;;;;5056063;28;20136;-78
2023/08/22 01:32:43;;;;;;;10.10;6.90;;;;;;;;;;5056298;28;20033;-78
2023/08/22 01:35:10;;;;;;;10.75;6.35;;;;;;;;;;5055845;28;20468;-78
2023/08/22 01:37:36;;;;;;;12.30;7.15;;;;;;;;;;5055922;28;20029;-79
2023/08/22 01:40:04;;;;;;;11.65;7.18;;;;;;;;;;5055838;28;20024;-78
2023/08/22 01:42:30;;;;;;;9.82;6.75;;;;;;;;;;5056324;28;20150;-79
2023/08/22 01:44:56;;;;;;;10.52;6.82;;;;;;;;;;5056416;28;20032;-78
2023/08/22 01:47:22;;;;;;;13.25;6.53;;;;;;;;;;5056545;28;20021;-79
2023/08/22 01:49:48;;;;;;;10.38;6.70;;;;;;;;;;5056358;28;20028;-79
2023/08/22 01:52:14;;;;;;;11.85;7.03;;;;;;;;;;5055668;28;20059;-79
2023/08/22 01:54:40;;;;;;;10.68;7.00;;;;;;;;;;5056212;28;20024;-78
2023/08/22 01:57:22;;;;;;;10.75;6.95;;;;;;;;;;5056281;28;20116;-78
2023/08/22 01:59:48;;;;;;;13.23;6.85;;;;;;;;;;5056085;28;20424;-78
2023/08/22 02:02:14;;;;;;;8.77;6.38;;;;;;;;;;5055774;28;20444;-78
2023/08/22 02:04:40;;;;;;;8.00;6.10;;;;;;;;;;5055403;28;20104;-78
2023/08/22 02:07:06;;;;;;;9.20;6.90;;;;;;;;;;5055633;28;20029;-78
2023/08/22 02:09:32;;;;;;;10.68;6.93;;;;;;;;;;5055338;28;20133;-78
2023/08/22 02:11:58;;;;;;;12.75;7.97;;;;;;;;;;5053649;28;20040;-78
2023/08/22 02:14:24;;;;;;;11.98;7.75;;;;;;;;;;5054973;28;20099;-78
2023/08/22 02:16:50;;;;;;;16.65;7.90;;;;;;;;;;5054816;28;20056;-78
2023/08/22 02:19:19;;;;;;;12.48;8.10;;;;;;;;;;5055150;28;20100;-77
2023/08/22 02:21:44;;;;;;;12.60;8.50;;;;;;;;;;5054851;28;20025;-78
2023/08/22 02:24:10;;;;;;;12.35;8.30;;;;;;;;;;5054672;28;20029;-78
2023/08/22 02:26:37;;;;;;;15.77;8.60;;;;;;;;;;5054674;28;20108;-78
2023/08/22 02:29:03;;;;;;;13.10;8.45;;;;;;;;;;5054948;28;20108;-78
2023/08/22 02:31:29;;;;;;;13.35;9.38;;;;;;;;;;5054297;28;20021;-78
2023/08/22 02:33:55;;;;;;;16.42;10.93;;;;;;;;;;5054631;28;20029;-77
2023/08/22 02:36:21;;;;;;;12.77;9.15;;;;;;;;;;5053558;28;20053;-78
2023/08/22 02:39:07;;;;;;;11.00;7.75;;;;;;;;;;5054248;28;20388;-78
2023/08/22 02:41:43;;;;;;;12.65;8.73;;;;;;;;;;5054807;28;20041;-78
2023/08/22 02:44:09;;;;;;;13.88;8.95;;;;;;;;;;5034746;28;20431;-77
2023/08/22 02:46:35;;;;;;;11.23;8.20;;;;;;;;;;5034700;28;20089;-77
2023/08/22 02:49:02;;;;;;;16.80;9.93;;;;;;;;;;5034663;28;20033;-79
2023/08/22 02:51:28;;;;;;;14.23;8.60;;;;;;;;;;5035187;28;20017;-80
2023/08/22 02:53:54;;;;;;;17.02;10.32;;;;;;;;;;5034953;28;20387;-79
2023/08/22 02:56:20;;;;;;;15.38;10.65;;;;;;;;;;5035266;28;20091;-79
2023/08/22 02:58:46;;;;;;;15.93;10.40;;;;;;;;;;5034746;28;20053;-80
2023/08/22 03:01:12;;;;;;;15.88;10.60;;;;;;;;;;5035742;28;20077;-79
2023/08/22 03:03:39;;;;;;;15.48;11.02;;;;;;;;;;5034504;28;20025;-80
2023/08/22 03:06:05;;;;;;;16.80;10.30;;;;;;;;;;5034452;28;20022;-79
2023/08/22 03:08:31;;;;;;;13.60;9.73;;;;;;;;;;5034388;28;20025;-80
2023/08/22 03:11:01;;;;;;;16.85;9.35;;;;;;;;;;5034758;28;20022;-80
2023/08/22 03:13:30;;;;;;;15.48;10.10;;;;;;;;;;5034181;28;20021;-79
2023/08/22 03:15:58;;;;;;;11.83;8.83;;;;;;;;;;5034272;28;20029;-80
2023/08/22 03:18:25;;;;;;;14.52;10.32;;;;;;;;;;5034899;28;20033;-80
2023/08/22 03:20:52;;;;;;;12.60;8.63;;;;;;;;;;5034259;28;20107;-80
2023/08/22 03:23:21;;;;;;;14.77;9.15;;;;;;;;;;5034598;28;20040;-80
2023/08/22 03:25:55;;;;;;;13.43;8.93;;;;;;;;;;5034208;28;20030;-78
2023/08/22 03:28:33;;;;;;;12.55;8.82;;;;;;;;;;5033872;28;20041;-79
2023/08/22 03:31:02;;;;;;;14.30;8.43;;;;;;;;;;5034473;28;20080;-78
2023/08/22 03:33:35;;;;;;;13.23;8.70;;;;;;;;;;5034501;28;20368;-79
2023/08/22 03:36:01;;;;;;;11.32;7.32;;;;;;;;;;5034070;28;20131;-78
2023/08/22 03:38:27;;;;;;;9.88;6.82;;;;;;;;;;5034043;28;20050;-79
2023/08/22 03:40:54;;;;;;;11.55;7.85;;;;;;;;;;5034088;28;20037;-79
2023/08/22 03:43:20;;;;;;;12.38;9.00;;;;;;;;;;5046700;28;20060;-79
2023/08/22 03:45:47;;;;;;;13.75;8.65;;;;;;;;;;5054214;28;20063;-78
2023/08/22 03:48:13;;;;;;;14.70;9.25;;;;;;;;;;5056849;28;20028;-79
2023/08/22 03:50:39;;;;;;;10.57;8.55;;;;;;;;;;5058053;28;20060;-78
2023/08/22 03:53:06;;;;;;;12.02;7.93;;;;;;;;;;5058067;28;20033;-79
2023/08/22 03:55:32;;;;;;;13.95;8.25;;;;;;;;;;5057543;28;20021;-78
2023/08/22 03:57:58;;;;;;;12.25;7.53;;;;;;;;;;5057446;28;20021;-79
2023/08/22 04:00:25;;;;;;;12.73;8.05;;;;;;;;;;5057164;28;20029;-79
2023/08/22 04:02:58;;;;;;;12.13;8.77;;;;;;;;;;5056919;28;20024;-79
2023/08/22 04:05:24;;;;;;;12.52;8.75;;;;;;;;;;5056841;28;20411;-79
2023/08/22 04:07:50;;;;;;;12.52;8.73;;;;;;;;;;5056737;28;20024;-78
2023/08/22 04:10:30;;;;;;;11.55;8.35;;;;;;;;;;5056863;28;20025;-78
2023/08/22 04:15:58;;;;;;;11.40;7.13;;;;;;;;;;5056998;28;20036;-78
2023/08/22 04:18:24;;;;;;;11.95;8.15;;;;;;;;;;5056874;28;20021;-78
2023/08/22 04:20:50;;;;;;;16.02;8.98;;;;;;;;;;5056950;28;20032;-79
2023/08/22 04:23:16;;;;;;;15.30;9.70;;;;;;;;;;5056671;28;20025;-79
2023/08/22 04:25:42;;;;;;;10.48;8.43;;;;;;;;;;5057092;28;20108;-79
2023/08/22 04:28:08;;;;;;;14.25;9.05;;;;;;;;;;5056587;28;20049;-79
2023/08/22 04:30:34;;;;;;;11.88;8.15;;;;;;;;;;5057039;28;20383;-78
2023/08/22 04:33:00;;;;;;;10.52;7.72;;;;;;;;;;5055953;28;20036;-78
2023/08/22 04:35:26;;;;;;;11.65;7.32;;;;;;;;;;5056384;28;20024;-79
2023/08/22 04:37:52;;;;;;;11.13;8.18;;;;;;;;;;5056446;28;20112;-79
2023/08/22 04:40:18;;;;;;;11.45;8.50;;;;;;;;;;5055961;28;20060;-78
2023/08/22 04:42:44;;;;;;;12.63;9.00;;;;;;;;;;5054843;28;20056;-78
2023/08/22 04:45:10;;;;;;;12.52;8.43;;;;;;;;;;5056164;28;20032;-78
2023/08/22 04:47:36;;;;;;;11.63;8.50;;;;;;;;;;5055879;28;20052;-78
2023/08/22 04:50:02;;;;;;;14.70;9.20;;;;;;;;;;5056156;28;20107;-78
2023/08/22 04:52:28;;;;;;;11.27;9.02;;;;;;;;;;5054945;28;20494;-77
2023/08/22 04:54:55;;;;;;;14.93;9.30;;;;;;;;;;5036358;28;20104;-78
2023/08/22 04:57:23;;;;;;;12.05;8.98;;;;;;;;;;5035772;28;20457;-78
2023/08/22 04:59:50;;;;;;;14.23;9.60;;;;;;;;;;5035272;28;20029;-79
2023/08/22 05:02:16;;;;;;;13.20;8.60;;;;;;;;;;5034420;28;20116;-79
2023/08/22 05:04:42;;;;;;;14.85;9.00;;;;;;;;;;5044440;28;20029;-78
2023/08/22 05:07:08;;;;;;;14.02;9.85;;;;;;;;;;5055691;28;20029;-78
2023/08/22 05:09:34;;;;;;;13.38;10.02;;;;;;;;;;5056049;28;20491;-78
2023/08/22 05:12:00;;;;;;;15.50;11.15;;;;;;;;;;5056070;28;20033;-78
2023/08/22 05:14:27;;;;;;;20.13;11.90;;;;;;;;;;5055855;28;20025;-78
2023/08/22 05:16:53;;;;;;;20.20;11.75;;;;;;;;;;5056320;28;20017;-78
2023/08/22 05:19:20;;;;;;;20.58;13.20;;;;;;;;;;5056882;28;20440;-79
2023/08/22 05:21:46;;;;;;;22.85;13.43;;;;;;;;;;5056362;28;20438;-78
2023/08/22 05:24:12;;;;;;;18.40;12.73;;;;;;;;;;5056400;28;20021;-79
2023/08/22 05:26:38;;;;;;;18.48;11.18;;;;;;;;;;5056233;28;20082;-79
2023/08/22 05:29:04;;;;;;;17.13;12.52;;;;;;;;;;5056507;28;20071;-78
2023/08/22 05:31:30;;;;;;;16.77;13.25;;;;;;;;;;5057029;28;20025;-78
2023/08/22 05:33:56;;;;;;;20.50;13.20;;;;;;;;;;5055562;28;20083;-78
2023/08/22 05:36:38;;;;;;;19.67;14.65;;;;;;;;;;5054273;28;20103;-78
2023/08/22 05:39:06;;;;;;;25.90;14.20;;;;;;;;;;5056232;28;20029;-78
2023/08/22 05:41:32;;;;;;;18.23;14.32;;;;;;;;;;5056644;28;20017;-78
2023/08/22 05:43:58;;;;;;;16.73;12.20;;;;;;;;;;5055385;28;20128;-78
2023/08/22 05:46:24;;;;;;;16.70;12.23;;;;;;;;;;5058106;28;20055;-78
2023/08/22 05:48:50;;;;;;;17.27;12.43;;;;;;;;;;5058907;28;20094;-79
2023/08/22 05:51:16;;;;;;;15.70;11.13;;;;;;;;;;5057048;28;20037;-78
2023/08/22 05:53:42;;;;;;;14.73;10.80;;;;;;;;;;5056630;28;20056;-77
2023/08/22 05:56:08;;;;;;;14.75;10.77;;;;;;;;;;5056752;28;20086;-78
2023/08/22 05:58:34;;;;;;;14.80;10.82;;;;;;;;;;5055668;28;20036;-78
2023/08/22 06:01:07;;;;;;;15.63;10.02;;;;;;;;;;5055969;28;20032;-79
2023/08/22 06:03:32;;;;;;;12.55;9.45;;;;;;;;;;5056066;28;20409;-79
2023/08/22 06:05:58;;;;;;;14.68;9.48;;;;;;;;;;5057255;28;20032;-77
2023/08/22 06:08:24;;;;;;;18.33;10.57;;;;;;;;;;5058597;28;20040;-77
2023/08/22 06:10:50;;;;;;;13.65;10.15;;;;;;;;;;5057959;28;20029;-78
2023/08/22 06:13:16;;;;;;;11.90;9.85;;;;;;;;;;5053910;28;20065;-77
2023/08/22 06:15:42;;;;;;;15.30;9.88;;;;;;;;;;5056699;28;20056;-76
2023/08/22 06:18:09;;;;;;;13.10;8.95;;;;;;;;;;5055728;28;20033;-77
2023/08/22 06:20:41;;;;;;;13.40;9.07;;;;;;;;;;5057230;28;20448;-77
2023/08/22 06:23:07;;;;;;;14.25;9.23;;;;;;;;;;5057926;28;20032;-77
2023/08/22 06:25:33;;;;;;;11.80;8.52;;;;;;;;;;5057657;28;20033;-77
2023/08/22 06:27:59;;;;;;;12.77;8.75;;;;;;;;;;5055518;28;20105;-77
2023/08/22 06:30:25;;;;;;;11.02;7.13;;;;;;;;;;5057597;28;20025;-77
2023/08/22 06:32:51;;;;;;;11.20;8.27;;;;;;;;;;5058025;28;20079;-77
2023/08/22 06:35:17;;;;;;;10.80;8.15;;;;;;;;;;5057772;28;20498;-77
2023/08/22 06:37:43;;;;;;;12.77;8.10;;;;;;;;;;5055490;28;20025;-77
2023/08/22 06:40:09;;;;;;;10.93;7.68;;;;;;;;;;5058230;28;20025;-76
2023/08/22 06:42:35;;;;;;;8.70;6.88;;;;;;;;;;5055416;28;20529;-77
2023/08/22 06:45:01;;;;;;;12.15;7.45;;;;;;;;;;5058107;28;20071;-77
2023/08/22 06:47:27;;;;;;;10.57;6.97;;;;;;;;;;5059014;28;20017;-76
2023/08/22 06:49:53;;;;;;;10.27;7.10;;;;;;;;;;5057810;28;20025;-77
2023/08/22 06:52:19;;;;;;;8.40;6.00;;;;;;;;;;5037382;28;20030;-77
2023/08/22 06:54:45;;;;;;;10.00;6.50;;;;;;;;;;5052661;28;20029;-77
2023/08/22 06:57:11;;;;;;;9.57;6.10;;;;;;;;;;5057451;28;20034;-77
2023/08/22 06:59:37;;;;;;;9.35;5.75;;;;;;;;;;5056878;28;20040;-76
2023/08/22 07:02:03;;;;;;;8.95;6.05;;;;;;;;;;5058161;28;20029;-77
2023/08/22 07:04:31;;;;;;;7.65;6.22;;;;;;;;;;5058013;28;20021;-77
2023/08/22 07:06:57;;;;;;;8.27;5.90;;;;;;;;;;5058793;28;20108;-77
2023/08/22 07:09:23;;;;;;;9.82;6.15;;;;;;;;;;5059849;28;20069;-77
2023/08/22 07:11:49;;;;;;;7.25;5.82;;;;;;;;;;5058505;28;20029;-77
2023/08/22 07:14:15;;;;;;;9.57;5.70;;;;;;;;;;5057450;28;20093;-77
2023/08/22 07:16:41;;;;;;;7.78;5.18;;;;;;;;;;5056227;28;20103;-76
2023/08/22 07:19:07;;;;;;;8.60;5.13;;;;;;;;;;5055002;28;20585;-77
2023/08/22 07:21:33;;;;;;;8.48;5.55;;;;;;;;;;5053184;28;20460;-77
2023/08/22 07:23:59;;;;;;;8.02;5.30;;;;;;;;;;5058637;28;20147;-77
2023/08/22 07:26:25;;;;;;;10.15;5.80;;;;;;;;;;5058328;28;20368;-77
2023/08/22 07:28:51;;;;;;;8.40;5.20;;;;;;;;;;5056897;28;20111;-77
2023/08/22 07:31:17;;;;;;;10.20;5.88;;;;;;;;;;5060809;28;20032;-78
2023/08/22 07:33:43;;;;;;;8.05;4.25;;;;;;;;;;5059201;28;20033;-78
2023/08/22 07:36:16;;;;;;;9.63;5.82;;;;;;;;;;5059766;28;20025;-78
2023/08/22 07:38:42;;;;;;;10.80;5.90;;;;;;;;;;5059632;28;20037;-77
2023/08/22 07:41:10;;;;;;;9.52;5.40;;;;;;;;;;5059478;28;20494;-78
2023/08/22 07:43:36;;;;;;;11.27;5.47;;;;;;;;;;5058617;28;20048;-78
2023/08/22 07:46:02;;;;;;;8.48;6.20;;;;;;;;;;5059850;28;20091;-77
2023/08/22 07:48:28;;;;;;;10.07;5.95;;;;;;;;;;5059097;28;20044;-78
2023/08/22 07:50:57;;;;;;;9.60;5.32;;;;;;;;;;5056616;28;20460;-78
2023/08/22 07:53:23;;;;;;;7.82;5.47;;;;;;;;;;5058415;28;20029;-77
2023/08/22 07:55:49;;;;;;;8.68;5.85;;;;;;;;;;5058848;28;20511;-77
2023/08/22 07:58:16;;;;;;;11.40;6.38;;;;;;;;;;5056462;28;20112;-78
2023/08/22 08:00:47;;;;;;;9.40;5.70;;;;;;;;;;5058557;28;20029;-77
2023/08/22 08:03:13;;;;;;;10.52;5.68;;;;;;;;;;5058327;28;20032;-78
2023/08/22 08:05:39;;;;;;;8.15;5.05;;;;;;;;;;5057829;28;20100;-78
2023/08/22 08:08:05;;;;;;;8.02;5.10;;;;;;;;;;5058081;28;20079;-78
2023/08/22 08:10:31;;;;;;;7.50;5.50;;;;;;;;;;5058112;28;20021;-78
2023/08/22 08:12:57;;;;;;;11.07;5.45;;;;;;;;;;5056671;28;20110;-78
2023/08/22 08:15:23;;;;;;;7.65;5.53;;;;;;;;;;5058186;28;20036;-78
2023/08/22 08:17:49;;;;;;;7.80;5.40;;;;;;;;;;5058034;28;20033;-78
2023/08/22 08:20:15;;;;;;;8.98;5.05;;;;;;;;;;5057452;28;20025;-78
2023/08/22 08:22:41;;;;;;;6.85;4.32;;;;;;;;;;5056754;28;20032;-78
2023/08/22 08:25:08;;;;;;;6.75;5.15;;;;;;;;;;5057021;28;20029;-78
2023/08/22 08:27:34;;;;;;;7.85;5.50;;;;;;;;;;5056111;28;20028;-78
2023/08/22 08:30:00;;;;;;;9.60;5.72;;;;;;;;;;5054979;28;20021;-77
2023/08/22 08:32:26;;;;;;;6.82;5.05;;;;;;;;;;5055143;28;20040;-78
2023/08/22 08:34:52;;;;;;;6.70;4.70;;;;;;;;;;5053650;28;20033;-77
2023/08/22 08:37:18;;;;;;;7.55;4.93;;;;;;;;;;5054474;28;20025;-78
2023/08/22 08:39:44;;;;;;;9.50;5.57;;;;;;;;;;5054671;28;20024;-77
2023/08/22 08:42:13;;;;;;;9.43;5.22;;;;;;;;;;5054460;28;20029;-77
2023/08/22 08:44:40;;;;;;;7.43;5.35;;;;;;;;;;5054000;28;20683;-77
2023/08/22 08:47:07;;;;;;;9.60;5.28;;;;;;;;;;5054311;28;20075;-77
2023/08/22 08:49:34;;;;;;;8.63;4.90;;;;;;;;;;5054210;28;20087;-77
2023/08/22 08:52:04;;;;;;;8.57;4.68;;;;;;;;;;5054136;28;20064;-77
2023/08/22 08:54:30;;;;;;;7.82;5.13;;;;;;;;;;5054401;28;20098;-78
2023/08/22 08:56:56;;;;;;;8.23;4.85;;;;;;;;;;5054040;28;20131;-77
2023/08/22 08:59:23;;;;;;;10.93;5.97;;;;;;;;;;5054008;28;20013;-77
2023/08/22 09:01:50;;;;;;;9.23;4.97;;;;;;;;;;5054192;28;20013;-77
2023/08/22 09:04:17;;;;;;;7.65;5.40;;;;;;;;;;5054173;28;20021;-77
2023/08/22 09:06:45;;;;;;;7.25;6.15;;;;;;;;;;5054097;28;20037;-77
2023/08/22 09:09:12;;;;;;;9.77;5.32;;;;;;;;;;5053907;28;20055;-77
2023/08/22 09:11:45;;;;;;;8.77;6.07;;;;;;;;;;5054833;28;20025;-77
2023/08/22 09:14:11;;;;;;;10.07;5.55;;;;;;;;;;5053961;28;20020;-77
2023/08/22 09:16:37;;;;;;;8.55;5.75;;;;;;;;;;5054106;28;20058;-77
2023/08/22 09:19:04;;;;;;;10.15;6.03;;;;;;;;;;5053729;28;20025;-77
2023/08/22 09:21:30;;;;;;;9.52;6.15;;;;;;;;;;5053690;28;20051;-77
2023/08/22 09:24:09;;;;;;;10.15;5.63;;;;;;;;;;5053618;28;20396;-77
2023/08/22 09:26:35;;;;;;;8.25;5.70;;;;;;;;;;5058661;28;20024;-76
2023/08/22 09:29:05;;;;;;;11.30;5.93;;;;;;;;;;5060371;28;20021;-77
2023/08/22 09:31:32;;;;;;;13.80;6.80;;;;;;;;;;5060361;28;20025;-77
2023/08/22 09:33:58;;;;;;;8.45;5.68;;;;;;;;;;5054808;28;20435;-77
2023/08/22 09:36:25;;;;;;;9.80;5.78;;;;;;;;;;5055622;28;20426;-77
2023/08/22 09:38:54;;;;;;;9.60;5.95;;;;;;;;;;5061475;28;20107;-77
2023/08/22 09:41:20;;;;;;;;;;;;;;;;;;5059279;28;20104;-77
2023/08/22 09:43:47;;;;;;;10.07;5.82;;;;;;;;;;5058824;28;19967;-77
2023/08/22 09:46:13;;;;;;;9.40;6.22;;;;;;;;;;5060794;28;20032;-77
2023/08/22 09:48:40;;;;;;;11.57;6.10;;;;;;;;;;5061543;28;20025;-77
2023/08/22 09:51:09;;;;;;;9.73;5.95;;;;;;;;;;5062139;28;20468;-77
2023/08/22 09:53:35;;;;;;;6.65;4.60;;;;;;;;;;5060821;28;20099;-77
2023/08/22 09:56:01;;;;;;;7.20;4.13;;;;;;;;;;5058316;28;20013;-77
2023/08/22 09:58:28;;;;;;;5.38;3.72;;;;;;;;;;5057657;28;20644;-77
2023/08/22 10:00:56;;;;;;;9.60;4.00;;;;;;;;;;5056501;28;20543;-77
2023/08/22 10:03:22;;;;;;;6.82;4.10;;;;;;;;;;5054866;28;20477;-78
2023/08/22 10:05:50;;;;;;;6.60;4.60;;;;;;;;;;5052873;28;20082;-77
2023/08/22 10:08:16;;;;;;;7.57;4.03;;;;;;;;;;5052811;28;20021;-78
2023/08/22 10:10:43;;;;;;;5.63;4.15;;;;;;;;;;5052693;28;20112;-78
2023/08/22 10:13:10;;;;;;;9.30;4.80;;;;;;;;;;5052581;28;20025;-78
2023/08/22 10:15:36;;;;;;;9.52;4.40;;;;;;;;;;5052476;28;20427;-77
2023/08/22 10:18:03;;;;;;;6.38;3.30;;;;;;;;;;5052536;28;20537;-76
2023/08/22 10:20:29;;;;;;;8.80;3.72;;;;;;;;;;5052559;28;20016;-75
2023/08/22 10:22:55;;;;;;;6.25;3.55;;;;;;;;;;5052305;28;20036;-76
2023/08/22 10:25:41;;;;;;;7.80;4.00;;;;;;;;;;5052954;28;20029;-75
2023/08/22 10:28:07;;;;;;;8.32;4.43;;;;;;;;;;5052744;28;20056;-75
2023/08/22 10:30:33;;;;;;;7.32;4.40;;;;;;;;;;5055193;28;20040;-75
2023/08/22 10:33:03;;;;;;;8.57;5.30;;;;;;;;;;5055707;28;20048;-75
2023/08/22 10:35:29;;;;;;;7.25;4.78;;;;;;;;;;5052446;28;20021;-75
2023/08/22 10:37:56;;;;;;;9.35;5.38;;;;;;;;;;5052199;28;20021;-75
2023/08/22 10:40:24;;;;;;;9.82;6.13;;;;;;;;;;5052261;28;20106;-75
2023/08/22 10:42:52;;;;;;;8.25;5.10;;;;;;;;;;5051317;28;20353;-76
2023/08/22 10:45:18;;;;;;;9.02;5.65;;;;;;;;;;5052777;28;20045;-75
2023/08/22 10:47:48;;;;;;;7.43;5.45;;;;;;;;;;5052164;28;20062;-75
2023/08/22 10:50:16;;;;;;;9.60;5.47;;;;;;;;;;5052610;28;20029;-76
2023/08/22 10:52:42;;;;;;;9.40;5.85;;;;;;;;;;5052283;28;20407;-75
2023/08/22 10:55:13;;;;;;;8.93;4.97;;;;;;;;;;5052179;28;20464;-75
2023/08/22 10:57:39;;;;;;;8.30;6.07;;;;;;;;;;5054224;28;20024;-75
2023/08/22 11:00:22;;;;;;;10.25;6.78;;;;;;;;;;5056264;28;20056;-76
2023/08/22 11:03:06;;;;;;;8.90;6.75;;;;;;;;;;5056360;28;20500;-75
2023/08/22 11:05:32;;;;;;;7.30;6.60;;;;;;;;;;5056303;28;20025;-75
2023/08/22 11:07:58;;;;;;;9.45;6.07;;;;;;;;;;5056057;28;20103;-75
2023/08/22 11:10:25;;;;;;;10.60;6.68;;;;;;;;;;5056147;28;20132;-75
2023/08/22 11:12:53;;;;;;;11.38;7.28;;;;;;;;;;5055985;28;20033;-75
2023/08/22 11:15:19;;;;;;;7.10;5.43;;;;;;;;;;5056039;28;20017;-75
2023/08/22 11:17:46;;;;;;;10.18;5.45;;;;;;;;;;5056016;28;20100;-75
2023/08/22 11:20:12;;;;;;;10.52;6.35;;;;;;;;;;5055966;28;20137;-75
2023/08/22 11:22:40;;;;;;;10.02;5.95;;;;;;;;;;5055865;28;20028;-76
2023/08/22 11:25:06;;;;;;;8.52;5.70;;;;;;;;;;5056139;28;20017;-75
2023/08/22 11:27:33;;;;;;;8.40;6.57;;;;;;;;;;5055858;28;20025;-75
2023/08/22 11:29:59;;;;;;;8.80;5.60;;;;;;;;;;5055788;28;20025;-76
2023/08/22 11:32:26;;;;;;;6.88;5.07;;;;;;;;;;5055615;28;20159;-75
2023/08/22 11:34:54;;;;;;;8.25;4.95;;;;;;;;;;5056038;28;20021;-75
2023/08/22 11:37:21;;;;;;;8.02;4.90;;;;;;;;;;5056041;28;20025;-75
2023/08/22 11:39:47;;;;;;;7.25;4.40;;;;;;;;;;5055568;28;20025;-75
2023/08/22 11:42:17;;;;;;;9.85;4.88;;;;;;;;;;5055592;28;20031;-75
2023/08/22 11:45:02;;;;;;;7.82;4.47;;;;;;;;;;5054542;28;20428;-75
2023/08/22 11:47:46;;;;;;;7.95;4.80;;;;;;;;;;5055351;28;20029;-75
2023/08/22 11:50:24;;;;;;;9.68;5.43;;;;;;;;;;5055340;28;20020;-76
2023/08/22 11:52:52;;;;;;;8.95;5.30;;;;;;;;;;5055846;28;20040;-75
2023/08/22 11:55:25;;;;;;;8.77;5.47;;;;;;;;;;5055260;28;20033;-75
2023/08/22 11:57:51;;;;;;;7.63;4.75;;;;;;;;;;5055604;28;20040;-75
2023/08/22 12:00:18;;;;;;;10.88;4.32;;;;;;;;;;5055051;28;20379;-75
2023/08/22 12:02:49;;;;;;;10.05;4.78;;;;;;;;;;5055185;28;20028;-75
2023/08/22 12:05:41;;;;;;;9.18;4.97;;;;;;;;;;5055093;28;20032;-77
2023/08/22 12:08:07;;;;;;;7.68;5.10;;;;;;;;;;5053602;28;20041;-77
2023/08/22 12:10:45;;;;;;;10.15;4.70;;;;;;;;;;5054819;28;20036;-77
2023/08/22 12:13:13;;;;;;;9.40;5.07;;;;;;;;;;5054998;28;20032;-77
2023/08/22 12:15:39;;;;;;;7.65;4.28;;;;;;;;;;5054872;28;20024;-77
2023/08/22 12:18:05;;;;;;;8.07;5.05;;;;;;;;;;5055269;28;20476;-77
2023/08/22 12:20:38;;;;;;;9.40;5.00;;;;;;;;;;5054365;28;20108;-78
2023/08/22 12:23:05;;;;;;;6.57;4.60;;;;;;;;;;5055076;28;20126;-78
2023/08/22 12:25:31;;;;;;;8.50;4.60;;;;;;;;;;5054915;28;20025;-78
2023/08/22 12:27:57;;;;;;;10.05;4.65;;;;;;;;;;5055216;28;20083;-77
2023/08/22 12:30:23;;;;;;;7.72;4.60;;;;;;;;;;5055086;28;20060;-77
2023/08/22 12:32:49;;;;;;;6.47;5.22;;;;;;;;;;5054675;28;20040;-77
2023/08/22 12:35:15;;;;;;;11.85;6.63;;;;;;;;;;5054677;28;20059;-77
2023/08/22 12:37:41;;;;;;;9.35;6.07;;;;;;;;;;5054813;28;20024;-77
2023/08/22 12:40:10;;;;;;;9.88;6.47;;;;;;;;;;5054819;28;20456;-77
2023/08/22 12:42:40;;;;;;;8.75;5.47;;;;;;;;;;5054547;28;20495;-77
2023/08/22 12:45:10;;;;;;;10.52;6.18;;;;;;;;;;5054440;28;20041;-77
2023/08/22 12:47:36;;;;;;;11.30;6.15;;;;;;;;;;5054754;28;20443;-77
2023/08/22 12:50:02;;;;;;;9.15;6.25;;;;;;;;;;5054245;28;20082;-77
2023/08/22 12:52:28;;;;;;;7.43;5.65;;;;;;;;;;5059518;28;20025;-76
2023/08/22 12:54:54;;;;;;;9.60;6.35;;;;;;;;;;5060577;28;20021;-77
2023/08/22 12:57:20;;;;;;;10.25;7.00;;;;;;;;;;5058335;28;20434;-76
2023/08/22 12:59:46;;;;;;;7.60;5.93;;;;;;;;;;5055039;28;20416;-76
2023/08/22 13:02:12;;;;;;;8.60;5.65;;;;;;;;;;5054588;28;20029;-76
2023/08/22 13:04:45;;;;;;;9.02;5.53;;;;;;;;;;5054529;28;20338;-76
2023/08/22 13:07:12;;;;;;;8.63;5.70;;;;;;;;;;5055087;28;20033;-76
2023/08/22 13:09:38;;;;;;;8.77;5.00;;;;;;;;;;5061256;28;20081;-76
2023/08/22 13:12:04;;;;;;;8.05;5.47;;;;;;;;;;5057454;28;20087;-76
2023/08/22 13:14:30;;;;;;;8.75;6.28;;;;;;;;;;5058791;28;20049;-76
2023/08/22 13:16:56;;;;;;;8.27;5.35;;;;;;;;;;5060269;28;20025;-76
2023/08/22 13:19:22;;;;;;;11.27;6.20;;;;;;;;;;5060110;28;20025;-77
2023/08/22 13:21:48;;;;;;;9.32;5.60;;;;;;;;;;5060007;28;20036;-77
2023/08/22 13:24:14;;;;;;;8.95;5.85;;;;;;;;;;5059148;28;20029;-77
2023/08/22 13:26:41;;;;;;;8.18;5.35;;;;;;;;;;5054818;28;20111;-76
2023/08/22 13:29:07;;;;;;;7.13;4.70;;;;;;;;;;5056580;28;20096;-77
2023/08/22 13:31:36;;;;;;;7.68;4.40;;;;;;;;;;5057951;28;20106;-76
2023/08/22 13:34:08;;;;;;;8.63;4.97;;;;;;;;;;5058864;28;20025;-76
2023/08/22 13:36:34;;;;;;;7.05;4.53;;;;;;;;;;5059268;28;20099;-76
2023/08/22 13:39:00;;;;;;;9.07;5.60;;;;;;;;;;5058942;28;20037;-77
2023/08/22 13:41:27;;;;;;;7.53;4.50;;;;;;;;;;5058376;28;20043;-76
2023/08/22 13:43:53;;;;;;;8.02;4.18;;;;;;;;;;5054523;28;20041;-77
2023/08/22 13:46:19;;;;;;;8.93;4.93;;;;;;;;;;5055815;28;20044;-76
2023/08/22 13:48:48;;;;;;;7.63;4.65;;;;;;;;;;5056492;28;20048;-76
2023/08/22 13:51:16;;;;;;;;;;;;;;;;;;5058848;28;20480;-76
2023/08/22 13:53:42;;;;;;;6.55;5.28;;;;;;;;;;5057004;28;19913;-76
2023/08/22 13:56:09;;;;;;;7.30;5.18;;;;;;;;;;5055921;28;20353;-77
2023/08/22 13:58:35;;;;;;;8.07;4.60;;;;;;;;;;5057821;28;20028;-76
2023/08/22 14:01:01;;;;;;;6.35;4.18;;;;;;;;;;5057937;28;20033;-76
2023/08/22 14:03:27;;;;;;;6.57;4.80;;;;;;;;;;5060053;28;20033;-77
2023/08/22 14:05:53;;;;;;;7.65;5.03;;;;;;;;;;5053661;28;20033;-76
2023/08/22 14:08:19;;;;;;;8.93;5.60;;;;;;;;;;5053361;28;20024;-76
2023/08/22 14:10:45;;;;;;;7.03;4.60;;;;;;;;;;5052971;28;20060;-76
2023/08/22 14:13:11;;;;;;;7.88;4.13;;;;;;;;;;5052731;28;20086;-76
2023/08/22 14:15:37;;;;;;;5.72;3.53;;;;;;;;;;5052584;28;20021;-76
2023/08/22 14:18:03;;;;;;;6.13;3.30;;;;;;;;;;5052824;28;20519;-76
2023/08/22 14:20:29;;;;;;;5.50;2.80;;;;;;;;;;5052619;28;20066;-76
2023/08/22 14:22:55;;;;;;;7.15;3.85;;;;;;;;;;5052536;28;20033;-76
2023/08/22 14:25:21;;;;;;;7.10;3.50;;;;;;;;;;5052381;28;20082;-76
2023/08/22 14:27:47;;;;;;;6.03;3.17;;;;;;;;;;5052436;28;20025;-76
2023/08/22 14:30:13;;;;;;;5.93;3.08;;;;;;;;;;5052613;28;20027;-76
2023/08/22 14:32:39;;;;;;;17.42;6.55;;;;;;;;;;5053151;28;20469;-76
2023/08/22 14:35:06;;;;;;;6.85;3.28;;;;;;;;;;5052972;28;20131;-75
2023/08/22 14:37:33;;;;;;;5.88;2.67;;;;;;;;;;5053320;28;20036;-76
2023/08/22 14:39:59;;;;;;;7.05;3.45;;;;;;;;;;5052976;28;20017;-76